Honeoye Falls, New York
Current Conditions -  °F | °C
As of 4:39 AM on Thursday 27 Nov 2014 (Local Time) from KROC Reporting Station
Light Snow Light Snow  
Wind Chill: 22°   Ceiling: 3100
Heat Index: 28°   Visibility: 4mi
Dew Point: 26°   Wind: 6mph
Humidity: 92%   Direction: 300°WNW
Pressure: 30.03"   Gusts: NA
Location:  42.95°N, 77.59°W
Report Text: KROC 270939Z 30005KT 4SM -SN BR FEW008 BKN031 OVC046 M02/M03 A3003 RMK AO2 P0001 T10221033
Loading
Personal Weather Stations






























Interactive Weather Map New forecast layout! Learn more

10-Day Weather Forecast

Advertisements
Track Severe Weather on mobile